Time;durP1;ratioP1;P1;durP2;ratioP2;P2;SDS_P1;SDS_P2;PMS_P1;PMS_P2;Temp;Humidity;BMP_temperature;BMP_pressure;BME280_temperature;BME280_humidity;BME280_pressure;Samples;Min_cycle;Max_cycle;Signal;HPM_P1;HPM_P2
2023/07/04 00:01:00;;;;;;;11.98;2.17;;;;;;;;;;4938681;28;20218;-63
2023/07/04 00:03:26;;;;;;;6.50;2.00;;;;;;;;;;4964863;28;20206;-64
2023/07/04 00:05:54;;;;;;;7.05;2.20;;;;;;;;;;4964764;28;20221;-63
2023/07/04 00:08:21;;;;;;;9.48;1.83;;;;;;;;;;4956122;28;20229;-63
2023/07/04 00:10:46;;;;;;;10.23;2.60;;;;;;;;;;4964652;28;20300;-63
2023/07/04 00:13:11;;;;;;;6.72;2.03;;;;;;;;;;4949525;28;20281;-63
2023/07/04 00:15:42;;;;;;;7.88;2.38;;;;;;;;;;4955887;28;20230;-63
2023/07/04 00:18:08;;;;;;;7.47;1.85;;;;;;;;;;4957997;28;20625;-63
2023/07/04 00:20:37;;;;;;;6.53;1.83;;;;;;;;;;4955728;28;20218;-64
2023/07/04 00:23:02;;;;;;;7.07;2.05;;;;;;;;;;4956109;28;20434;-62
2023/07/04 00:25:28;;;;;;;9.40;2.83;;;;;;;;;;4963248;28;20217;-64
2023/07/04 00:27:53;;;;;;;8.50;2.00;;;;;;;;;;4963858;28;20218;-63
2023/07/04 00:30:20;;;;;;;8.43;2.10;;;;;;;;;;4963458;28;20234;-63
2023/07/04 00:32:45;;;;;;;7.97;1.83;;;;;;;;;;4960390;28;20237;-63
2023/07/04 00:35:11;;;;;;;6.93;2.03;;;;;;;;;;4942799;28;20603;-63
2023/07/04 00:37:36;;;;;;;9.20;2.58;;;;;;;;;;4944604;28;20218;-63
2023/07/04 00:40:05;;;;;;;9.88;2.08;;;;;;;;;;4958343;28;20214;-62
2023/07/04 00:42:34;;;;;;;7.07;2.00;;;;;;;;;;4954288;28;20330;-64
2023/07/04 00:44:59;;;;;;;8.27;2.63;;;;;;;;;;4941709;28;20237;-63
2023/07/04 00:47:33;;;;;;;8.40;2.00;;;;;;;;;;4940767;28;20603;-63
2023/07/04 00:50:06;;;;;;;10.10;2.13;;;;;;;;;;4962476;28;20214;-64
2023/07/04 00:52:33;;;;;;;7.55;2.00;;;;;;;;;;4962434;28;20619;-63
2023/07/04 00:54:58;;;;;;;5.88;1.80;;;;;;;;;;4962986;28;20316;-63
2023/07/04 00:57:25;;;;;;;7.07;1.90;;;;;;;;;;4962046;28;20213;-63
2023/07/04 00:59:52;;;;;;;8.18;2.03;;;;;;;;;;4963155;28;20218;-63
2023/07/04 01:02:18;;;;;;;8.65;1.90;;;;;;;;;;4926462;28;20727;-63
2023/07/04 01:04:44;;;;;;;9.77;2.20;;;;;;;;;;4937468;28;20217;-63
2023/07/04 01:07:13;;;;;;;6.93;2.08;;;;;;;;;;4953929;28;20243;-63
2023/07/04 01:09:38;;;;;;;7.65;2.10;;;;;;;;;;4934254;28;21017;-63
2023/07/04 01:12:04;;;;;;;7.63;1.77;;;;;;;;;;4934912;28;20233;-63
2023/07/04 01:14:29;;;;;;;8.68;2.38;;;;;;;;;;4945443;28;20229;-63
2023/07/04 01:16:54;;;;;;;8.57;1.80;;;;;;;;;;4942768;28;20581;-63
2023/07/04 01:19:24;;;;;;;5.15;1.60;;;;;;;;;;4943547;28;20304;-63
2023/07/04 01:21:50;;;;;;;9.35;1.85;;;;;;;;;;4945385;28;20241;-63
2023/07/04 01:24:18;;;;;;;9.98;2.67;;;;;;;;;;4961401;28;20649;-64
2023/07/04 01:26:44;;;;;;;11.38;2.45;;;;;;;;;;4941151;28;20210;-67
2023/07/04 01:29:11;;;;;;;9.96;2.46;;;;;;;;;;4906637;28;1189587;-61
2023/07/04 01:31:36;;;;;;;9.43;2.30;;;;;;;;;;4938354;28;20829;-65
2023/07/04 01:34:04;;;;;;;9.98;2.50;;;;;;;;;;4939087;28;20325;-62
2023/07/04 01:36:32;;;;;;;8.52;2.15;;;;;;;;;;4939812;28;20265;-64
2023/07/04 01:38:57;;;;;;;11.57;2.45;;;;;;;;;;4926652;28;20245;-63
2023/07/04 01:41:24;;;;;;;11.60;2.50;;;;;;;;;;4943746;28;20214;-64
2023/07/04 01:43:53;;;;;;;11.63;2.63;;;;;;;;;;4929599;28;20221;-63
2023/07/04 01:46:18;;;;;;;8.65;2.65;;;;;;;;;;4945519;28;20281;-63
2023/07/04 01:48:44;;;;;;;11.40;2.78;;;;;;;;;;4946000;28;20211;-63
2023/07/04 01:51:09;;;;;;;13.13;2.67;;;;;;;;;;4936168;28;20277;-62
2023/07/04 01:53:34;;;;;;;10.95;2.40;;;;;;;;;;4935451;28;20564;-63
2023/07/04 01:56:00;;;;;;;8.15;2.28;;;;;;;;;;4938952;28;20580;-63
2023/07/04 01:58:25;;;;;;;10.02;2.53;;;;;;;;;;4943389;28;20219;-62
2023/07/04 02:00:50;;;;;;;12.02;2.67;;;;;;;;;;4962286;28;20637;-63
2023/07/04 02:03:15;;;;;;;13.60;2.95;;;;;;;;;;4962407;28;20217;-63
2023/07/04 02:05:41;;;;;;;10.82;2.55;;;;;;;;;;4962284;28;20280;-63
2023/07/04 02:08:06;;;;;;;11.57;2.70;;;;;;;;;;4962072;28;20595;-63
2023/07/04 02:10:31;;;;;;;10.48;2.70;;;;;;;;;;4944691;28;20219;-63
2023/07/04 02:12:57;;;;;;;13.90;2.83;;;;;;;;;;4942747;28;20768;-62
2023/07/04 02:15:23;;;;;;;11.20;3.10;;;;;;;;;;4944141;28;20567;-63
2023/07/04 02:17:48;;;;;;;12.93;3.30;;;;;;;;;;4959268;28;20210;-62
2023/07/04 02:20:16;;;;;;;11.32;2.75;;;;;;;;;;4965609;28;20233;-63
2023/07/04 02:22:41;;;;;;;9.15;2.38;;;;;;;;;;4966598;28;20217;-64
2023/07/04 02:25:07;;;;;;;12.20;3.25;;;;;;;;;;4966317;28;20272;-62
2023/07/04 02:27:32;;;;;;;11.80;2.92;;;;;;;;;;4965582;28;20218;-63
2023/07/04 02:29:57;;;;;;;15.15;3.20;;;;;;;;;;4966386;28;20927;-63
2023/07/04 02:32:23;;;;;;;13.35;2.95;;;;;;;;;;4965763;28;20646;-63
2023/07/04 02:34:48;;;;;;;11.32;3.00;;;;;;;;;;4960903;28;20231;-63
2023/07/04 02:37:13;;;;;;;10.02;2.80;;;;;;;;;;4957766;28;20217;-63
2023/07/04 02:39:39;;;;;;;13.40;2.95;;;;;;;;;;4958355;28;20213;-63
2023/07/04 02:42:05;;;;;;;11.15;2.80;;;;;;;;;;4962778;28;20217;-62
2023/07/04 02:44:31;;;;;;;11.38;2.83;;;;;;;;;;4963554;28;20738;-63
2023/07/04 02:46:56;;;;;;;11.82;3.05;;;;;;;;;;4949400;28;20615;-62
2023/07/04 02:49:21;;;;;;;10.45;3.05;;;;;;;;;;4965156;28;20213;-63
2023/07/04 02:51:46;;;;;;;10.27;3.22;;;;;;;;;;4974093;28;20229;-63
2023/07/04 02:54:12;;;;;;;13.27;3.00;;;;;;;;;;4972966;28;20222;-62
2023/07/04 02:56:37;;;;;;;12.63;3.22;;;;;;;;;;4973373;28;20216;-63
2023/07/04 02:59:02;;;;;;;11.30;3.22;;;;;;;;;;4973284;28;20225;-61
2023/07/04 03:01:28;;;;;;;8.32;2.65;;;;;;;;;;4973620;28;20214;-64
2023/07/04 03:03:53;;;;;;;10.65;2.50;;;;;;;;;;4973023;28;20661;-63
2023/07/04 03:06:19;;;;;;;10.05;2.55;;;;;;;;;;4973218;28;20290;-63
2023/07/04 03:08:45;;;;;;;9.38;2.85;;;;;;;;;;4973190;28;20237;-63
2023/07/04 03:11:10;;;;;;;10.40;2.72;;;;;;;;;;4972785;28;20588;-63
2023/07/04 03:13:36;;;;;;;10.38;2.70;;;;;;;;;;4973459;28;20214;-63
2023/07/04 03:16:01;;;;;;;12.93;3.00;;;;;;;;;;4972465;28;20503;-62
2023/07/04 03:18:27;;;;;;;13.32;3.50;;;;;;;;;;4973364;28;20224;-63
2023/07/04 03:20:52;;;;;;;11.80;2.97;;;;;;;;;;4973478;28;20210;-63
2023/07/04 03:23:17;;;;;;;10.38;2.63;;;;;;;;;;4972204;28;20236;-63
2023/07/04 03:25:43;;;;;;;15.63;3.45;;;;;;;;;;4973369;28;20228;-62
2023/07/04 03:28:08;;;;;;;9.20;2.95;;;;;;;;;;4972730;28;20700;-62
2023/07/04 03:30:34;;;;;;;12.70;3.10;;;;;;;;;;4972612;28;20762;-62
2023/07/04 03:32:59;;;;;;;11.52;3.20;;;;;;;;;;4973283;28;20214;-63
2023/07/04 03:35:24;;;;;;;9.73;2.90;;;;;;;;;;4972517;28;20213;-62
2023/07/04 03:37:50;;;;;;;11.13;2.97;;;;;;;;;;4972781;28;20222;-62
2023/07/04 03:40:15;;;;;;;10.57;2.85;;;;;;;;;;4972612;28;20214;-62
2023/07/04 03:42:40;;;;;;;14.18;3.72;;;;;;;;;;4972965;28;20225;-63
2023/07/04 03:45:06;;;;;;;15.13;3.40;;;;;;;;;;4971931;28;20210;-62
2023/07/04 03:47:31;;;;;;;15.05;3.05;;;;;;;;;;4972836;28;20206;-62
2023/07/04 03:49:57;;;;;;;11.63;3.20;;;;;;;;;;4972572;28;20213;-62
2023/07/04 03:52:22;;;;;;;12.15;3.40;;;;;;;;;;4971750;28;20703;-64
2023/07/04 03:54:47;;;;;;;9.05;3.20;;;;;;;;;;4972260;28;20305;-63
2023/07/04 03:57:13;;;;;;;10.27;3.10;;;;;;;;;;4972067;28;20214;-63
2023/07/04 03:59:38;;;;;;;10.00;2.95;;;;;;;;;;4972004;28;20213;-62
2023/07/04 04:02:03;;;;;;;11.13;3.60;;;;;;;;;;4972475;28;20589;-62
2023/07/04 04:04:29;;;;;;;13.65;3.42;;;;;;;;;;4972711;28;20242;-62
2023/07/04 04:06:56;;;;;;;15.38;3.03;;;;;;;;;;4972223;28;20209;-62
2023/07/04 04:09:23;;;;;;;14.50;3.00;;;;;;;;;;4967015;28;20225;-63
2023/07/04 04:11:49;;;;;;;15.23;3.35;;;;;;;;;;4949454;28;20255;-62
2023/07/04 04:14:14;;;;;;;13.10;3.00;;;;;;;;;;4943168;28;20233;-63
2023/07/04 04:16:39;;;;;;;12.13;2.88;;;;;;;;;;4946136;28;20226;-63
2023/07/04 04:19:05;;;;;;;15.50;3.17;;;;;;;;;;4942467;28;20705;-62
2023/07/04 04:21:30;;;;;;;10.65;2.70;;;;;;;;;;4937578;28;20214;-63
2023/07/04 04:23:56;;;;;;;12.50;2.88;;;;;;;;;;4937701;28;20377;-63
2023/07/04 04:26:21;;;;;;;11.43;2.88;;;;;;;;;;4955207;28;20685;-63
2023/07/04 04:28:47;;;;;;;13.43;3.45;;;;;;;;;;4946998;28;20573;-62
2023/07/04 04:31:12;;;;;;;12.70;3.10;;;;;;;;;;4963372;28;20233;-62
2023/07/04 04:33:38;;;;;;;13.70;3.10;;;;;;;;;;4963424;28;20234;-63
2023/07/04 04:36:03;;;;;;;9.07;2.80;;;;;;;;;;4961720;28;20725;-62
2023/07/04 04:38:29;;;;;;;10.32;3.08;;;;;;;;;;4945114;28;20210;-63
2023/07/04 04:40:55;;;;;;;17.00;3.50;;;;;;;;;;4958048;28;20219;-62
2023/07/04 04:43:21;;;;;;;12.85;3.15;;;;;;;;;;4937399;28;20226;-62
2023/07/04 04:45:46;;;;;;;15.40;3.60;;;;;;;;;;4943587;28;20246;-63
2023/07/04 04:48:25;;;;;;;19.33;4.45;;;;;;;;;;4944998;28;20217;-63
2023/07/04 04:50:51;;;;;;;12.93;3.50;;;;;;;;;;4948053;28;20453;-65
2023/07/04 04:53:16;;;;;;;15.20;3.80;;;;;;;;;;4963492;28;20226;-65
2023/07/04 04:55:42;;;;;;;12.38;3.45;;;;;;;;;;4949926;28;20218;-67
2023/07/04 04:58:07;;;;;;;13.43;3.22;;;;;;;;;;4945033;28;20360;-64
2023/07/04 05:00:32;;;;;;;12.15;3.85;;;;;;;;;;4945237;28;20213;-63
2023/07/04 05:02:58;;;;;;;13.73;3.90;;;;;;;;;;4944804;28;20222;-63
2023/07/04 05:05:23;;;;;;;15.77;3.83;;;;;;;;;;4938221;28;20218;-65
2023/07/04 05:07:49;;;;;;;17.83;3.95;;;;;;;;;;4936607;28;20321;-63
2023/07/04 05:10:15;;;;;;;12.75;3.88;;;;;;;;;;4939772;28;20638;-64
2023/07/04 05:12:41;;;;;;;12.80;3.80;;;;;;;;;;4962132;28;20829;-64
2023/07/04 05:15:07;;;;;;;11.85;4.05;;;;;;;;;;4951817;28;20214;-65
2023/07/04 05:17:32;;;;;;;15.77;4.50;;;;;;;;;;4961154;28;20290;-64
2023/07/04 05:19:59;;;;;;;15.50;4.55;;;;;;;;;;4948564;28;20725;-64
2023/07/04 05:22:25;;;;;;;15.88;4.50;;;;;;;;;;4962925;28;20248;-64
2023/07/04 05:24:50;;;;;;;18.95;5.82;;;;;;;;;;4951131;28;20261;-64
2023/07/04 05:27:16;;;;;;;20.50;6.00;;;;;;;;;;4940309;28;20749;-65
2023/07/04 05:29:41;;;;;;;18.38;5.00;;;;;;;;;;4935814;28;20246;-64
2023/07/04 05:32:06;;;;;;;18.08;5.68;;;;;;;;;;4936193;28;20270;-64
2023/07/04 05:34:32;;;;;;;23.92;6.85;;;;;;;;;;4939474;28;20219;-64
2023/07/04 05:36:57;;;;;;;19.33;5.82;;;;;;;;;;4944064;28;20225;-69
2023/07/04 05:39:23;;;;;;;18.88;5.35;;;;;;;;;;4944813;28;20225;-64
2023/07/04 05:41:48;;;;;;;21.58;5.63;;;;;;;;;;4945281;28;20305;-64
2023/07/04 05:44:13;;;;;;;20.45;5.35;;;;;;;;;;4943227;28;20210;-64
2023/07/04 05:46:39;;;;;;;18.50;5.75;;;;;;;;;;4948442;28;20741;-63
2023/07/04 05:49:04;;;;;;;19.25;5.95;;;;;;;;;;4966840;28;20205;-63
2023/07/04 05:51:29;;;;;;;20.75;6.25;;;;;;;;;;4969812;28;20213;-63
2023/07/04 05:53:55;;;;;;;20.88;5.22;;;;;;;;;;4970547;28;20273;-63
2023/07/04 05:56:22;;;;;;;23.10;6.03;;;;;;;;;;4969975;28;20217;-63
2023/07/04 05:58:48;;;;;;;20.15;6.47;;;;;;;;;;4969391;28;20681;-63
2023/07/04 06:01:14;;;;;;;20.83;5.78;;;;;;;;;;4970254;28;20609;-65
2023/07/04 06:03:40;;;;;;;20.55;5.78;;;;;;;;;;4970605;28;20198;-64
2023/07/04 06:06:06;;;;;;;20.75;6.13;;;;;;;;;;4969310;28;20296;-64
2023/07/04 06:08:32;;;;;;;21.70;5.97;;;;;;;;;;4970104;28;20214;-65
2023/07/04 06:10:58;;;;;;;18.05;5.88;;;;;;;;;;4970497;28;20218;-65
2023/07/04 06:13:23;;;;;;;23.38;6.15;;;;;;;;;;4969407;28;20232;-65
2023/07/04 06:15:48;;;;;;;20.65;6.35;;;;;;;;;;4970796;28;20333;-62
2023/07/04 06:18:13;;;;;;;22.40;6.55;;;;;;;;;;4969989;28;20260;-61
2023/07/04 06:20:39;;;;;;;20.08;5.65;;;;;;;;;;4970149;28;20217;-62
2023/07/04 06:23:04;;;;;;;23.60;6.35;;;;;;;;;;4970196;28;20650;-61
2023/07/04 06:25:29;;;;;;;27.48;6.03;;;;;;;;;;4970728;28;20713;-61
2023/07/04 06:27:55;;;;;;;27.38;6.30;;;;;;;;;;4969914;28;20695;-62
2023/07/04 06:30:20;;;;;;;22.92;6.68;;;;;;;;;;4969830;28;20720;-62
2023/07/04 06:32:45;;;;;;;22.85;6.03;;;;;;;;;;4966099;28;20217;-61
2023/07/04 06:35:11;;;;;;;22.50;5.97;;;;;;;;;;4969486;28;20222;-61
2023/07/04 06:37:36;;;;;;;22.98;5.78;;;;;;;;;;4969457;28;20237;-61
2023/07/04 06:40:02;;;;;;;24.25;6.03;;;;;;;;;;4969332;28;20712;-61
2023/07/04 06:42:28;;;;;;;20.90;5.82;;;;;;;;;;4970468;28;20221;-62
2023/07/04 06:44:53;;;;;;;25.73;5.80;;;;;;;;;;4954722;28;20284;-61
2023/07/04 06:47:18;;;;;;;24.65;6.18;;;;;;;;;;4969306;28;20591;-61
2023/07/04 06:49:44;;;;;;;26.15;5.82;;;;;;;;;;4970212;28;20213;-60
2023/07/04 06:52:09;;;;;;;21.13;6.00;;;;;;;;;;4969160;28;20222;-60
2023/07/04 06:54:34;;;;;;;15.50;5.57;;;;;;;;;;4969532;28;20336;-60
2023/07/04 06:57:02;;;;;;;21.45;5.70;;;;;;;;;;4971430;28;20213;-60
2023/07/04 06:59:27;;;;;;;23.42;5.78;;;;;;;;;;4967841;28;20210;-59
2023/07/04 07:01:53;;;;;;;19.58;5.20;;;;;;;;;;4973487;28;20222;-59
2023/07/04 07:04:18;;;;;;;22.58;5.70;;;;;;;;;;4971684;28;20210;-60
2023/07/04 07:06:43;;;;;;;20.60;5.82;;;;;;;;;;4973047;28;20245;-60
2023/07/04 07:09:09;;;;;;;21.60;5.43;;;;;;;;;;4972622;28;20297;-60
2023/07/04 07:11:34;;;;;;;21.15;5.90;;;;;;;;;;4973903;28;20213;-60
2023/07/04 07:14:00;;;;;;;22.70;5.93;;;;;;;;;;4973392;28;20229;-60
2023/07/04 07:16:25;;;;;;;20.05;5.50;;;;;;;;;;4972775;28;20210;-60
2023/07/04 07:18:51;;;;;;;20.40;5.50;;;;;;;;;;4973700;28;20214;-60
2023/07/04 07:21:18;;;;;;;24.40;5.20;;;;;;;;;;4972656;28;20214;-60
2023/07/04 07:23:43;;;;;;;25.10;5.95;;;;;;;;;;4972824;28;20284;-60
2023/07/04 07:26:09;;;;;;;19.48;4.30;;;;;;;;;;4972881;28;20681;-60
2023/07/04 07:28:40;;;;;;;20.77;5.10;;;;;;;;;;4973190;28;20220;-60
2023/07/04 07:31:07;;;;;;;23.10;5.50;;;;;;;;;;4972159;28;20218;-60
2023/07/04 07:33:32;;;;;;;19.50;5.03;;;;;;;;;;4954829;28;20248;-61
2023/07/04 07:35:58;;;;;;;21.27;5.15;;;;;;;;;;4972357;28;20664;-61
2023/07/04 07:38:23;;;;;;;20.40;4.78;;;;;;;;;;4971686;28;20246;-60
2023/07/04 07:40:50;;;;;;;22.42;5.50;;;;;;;;;;4972607;28;20213;-60
2023/07/04 07:43:15;;;;;;;18.70;4.93;;;;;;;;;;4971747;28;20206;-60
2023/07/04 07:45:40;;;;;;;20.83;4.85;;;;;;;;;;4972439;28;20651;-60
2023/07/04 07:48:05;;;;;;;22.90;4.30;;;;;;;;;;4971772;28;20206;-59
2023/07/04 07:50:31;;;;;;;21.40;4.93;;;;;;;;;;4971820;28;20759;-60
2023/07/04 07:52:56;;;;;;;17.60;4.72;;;;;;;;;;4972865;28;20233;-60
2023/07/04 07:55:21;;;;;;;21.23;5.35;;;;;;;;;;4972193;28;20312;-60
2023/07/04 07:57:47;;;;;;;20.33;4.88;;;;;;;;;;4972159;28;20212;-59
2023/07/04 08:00:12;;;;;;;18.27;4.50;;;;;;;;;;4972149;28;20244;-60
2023/07/04 08:02:38;;;;;;;13.90;4.32;;;;;;;;;;4972683;28;20210;-60
2023/07/04 08:05:03;;;;;;;16.23;4.38;;;;;;;;;;4971402;28;20237;-59
2023/07/04 08:07:28;;;;;;;17.73;4.53;;;;;;;;;;4972598;28;20217;-60
2023/07/04 08:09:54;;;;;;;16.75;4.45;;;;;;;;;;4971174;28;20655;-59
2023/07/04 08:12:19;;;;;;;16.45;3.70;;;;;;;;;;4971807;28;20760;-59
2023/07/04 08:14:44;;;;;;;17.60;4.00;;;;;;;;;;4972477;28;20260;-59
2023/07/04 08:17:10;;;;;;;10.98;3.50;;;;;;;;;;4971831;28;20217;-60
2023/07/04 08:19:35;;;;;;;14.95;3.63;;;;;;;;;;4971879;28;20274;-60
2023/07/04 08:22:00;;;;;;;13.68;3.60;;;;;;;;;;4971916;28;20644;-60
2023/07/04 08:24:26;;;;;;;13.77;3.78;;;;;;;;;;4972144;28;20244;-60
2023/07/04 08:26:52;;;;;;;16.90;3.72;;;;;;;;;;4972163;28;20304;-60
2023/07/04 08:29:17;;;;;;;14.50;3.65;;;;;;;;;;4971788;28;20650;-60
2023/07/04 08:31:42;;;;;;;13.70;3.53;;;;;;;;;;4972044;28;20217;-61
2023/07/04 08:34:10;;;;;;;19.52;3.85;;;;;;;;;;4971115;28;20232;-61
2023/07/04 08:36:35;;;;;;;18.55;3.97;;;;;;;;;;4971794;28;20214;-60
2023/07/04 08:39:00;;;;;;;18.25;4.40;;;;;;;;;;4971711;28;20563;-60
2023/07/04 08:41:43;;;;;;;18.55;3.60;;;;;;;;;;4975269;28;20569;-60
2023/07/04 08:44:19;;;;;;;16.27;4.38;;;;;;;;;;4973269;28;20239;-60
2023/07/04 08:46:46;;;;;;;16.98;3.40;;;;;;;;;;4951887;29;20285;-60
2023/07/04 08:49:25;;;;;;;16.33;3.75;;;;;;;;;;4952142;29;20285;-60
2023/07/04 08:51:53;;;;;;;13.73;3.30;;;;;;;;;;4935100;29;20210;-60
2023/07/04 08:54:19;;;;;;;15.90;3.30;;;;;;;;;;4951230;29;20321;-60
2023/07/04 08:56:44;;;;;;;18.00;3.38;;;;;;;;;;4952507;29;20756;-60
2023/07/04 08:59:15;;;;;;;13.50;3.67;;;;;;;;;;4968628;28;20219;-60
2023/07/04 09:01:48;;;;;;;13.50;2.90;;;;;;;;;;4970969;28;20719;-60
2023/07/04 09:04:19;;;;;;;15.38;3.72;;;;;;;;;;4971183;28;20214;-60
2023/07/04 09:06:48;;;;;;;15.82;3.80;;;;;;;;;;4953987;28;20221;-60
2023/07/04 09:09:20;;;;;;;15.35;3.50;;;;;;;;;;4958719;28;20668;-60
2023/07/04 09:11:46;;;;;;;12.05;3.22;;;;;;;;;;4970082;28;20679;-60
2023/07/04 09:14:15;;;;;;;13.10;3.60;;;;;;;;;;4969724;28;20222;-60
2023/07/04 09:16:42;;;;;;;13.93;3.33;;;;;;;;;;4970811;28;20729;-60
2023/07/04 09:19:09;;;;;;;15.82;3.50;;;;;;;;;;4970646;28;20288;-60
2023/07/04 09:21:36;;;;;;;14.02;3.13;;;;;;;;;;4971036;28;20237;-60
2023/07/04 09:24:01;;;;;;;11.80;3.30;;;;;;;;;;4970664;28;20217;-60
2023/07/04 09:26:34;;;;;;;12.70;3.25;;;;;;;;;;4970871;28;20225;-60
2023/07/04 09:29:00;;;;;;;17.50;3.38;;;;;;;;;;4970879;28;20249;-60
2023/07/04 09:31:29;;;;;;;13.00;2.80;;;;;;;;;;4970688;28;20581;-60
2023/07/04 09:33:54;;;;;;;13.45;3.28;;;;;;;;;;4954036;28;20277;-60
2023/07/04 09:36:21;;;;;;;16.90;3.00;;;;;;;;;;4970030;28;20711;-60
2023/07/04 09:38:53;;;;;;;12.68;3.25;;;;;;;;;;4971348;28;20328;-60
2023/07/04 09:41:19;;;;;;;14.00;3.22;;;;;;;;;;4970374;28;20346;-60
2023/07/04 09:43:44;;;;;;;12.80;2.63;;;;;;;;;;4970635;28;20292;-61
2023/07/04 09:46:26;;;;;;;12.30;3.10;;;;;;;;;;4970413;28;20719;-60
2023/07/04 09:48:52;;;;;;;12.10;2.97;;;;;;;;;;4970976;28;20692;-61
2023/07/04 09:51:18;;;;;;;11.85;2.72;;;;;;;;;;4969880;28;20217;-61
2023/07/04 09:53:44;;;;;;;14.15;2.97;;;;;;;;;;4970778;28;20233;-61
2023/07/04 09:56:09;;;;;;;12.55;3.00;;;;;;;;;;4970472;28;20702;-60
2023/07/04 09:58:36;;;;;;;11.98;2.40;;;;;;;;;;4970366;28;20206;-60
2023/07/04 10:01:08;;;;;;;10.70;2.70;;;;;;;;;;4970260;28;20217;-60
2023/07/04 10:03:33;;;;;;;10.07;2.67;;;;;;;;;;4970898;28;20271;-61
2023/07/04 10:05:59;;;;;;;13.30;2.85;;;;;;;;;;4969920;28;20712;-60
2023/07/04 10:08:24;;;;;;;10.63;2.58;;;;;;;;;;4970045;28;20213;-61
2023/07/04 10:10:50;;;;;;;13.07;3.10;;;;;;;;;;4970708;28;20240;-60
2023/07/04 10:13:17;;;;;;;10.60;2.80;;;;;;;;;;4952436;28;20225;-61
2023/07/04 10:15:43;;;;;;;11.85;2.50;;;;;;;;;;4953011;28;20296;-60
2023/07/04 10:18:11;;;;;;;11.77;2.45;;;;;;;;;;4969726;28;20344;-60
2023/07/04 10:20:39;;;;;;;10.20;2.47;;;;;;;;;;4970310;28;20218;-60
2023/07/04 10:23:04;;;;;;;10.60;2.53;;;;;;;;;;4970158;28;20209;-61
2023/07/04 10:25:30;;;;;;;11.82;3.17;;;;;;;;;;4970291;28;20214;-61
2023/07/04 10:27:57;;;;;;;12.32;2.60;;;;;;;;;;4970545;28;20213;-61
2023/07/04 10:30:23;;;;;;;13.68;3.03;;;;;;;;;;4952739;28;20229;-61
2023/07/04 10:32:49;;;;;;;10.70;2.63;;;;;;;;;;4972439;28;20220;-61
2023/07/04 10:35:15;;;;;;;13.93;2.70;;;;;;;;;;4956500;28;20671;-60
2023/07/04 10:37:41;;;;;;;11.05;2.90;;;;;;;;;;4956888;28;20696;-60
2023/07/04 10:40:08;;;;;;;10.25;2.65;;;;;;;;;;4956126;28;20221;-60
2023/07/04 10:42:41;;;;;;;10.63;2.65;;;;;;;;;;4974227;28;20241;-61
2023/07/04 10:45:06;;;;;;;12.93;2.72;;;;;;;;;;4956089;28;20217;-60
2023/07/04 10:47:37;;;;;;;14.52;3.50;;;;;;;;;;4973708;28;20260;-61
2023/07/04 10:50:11;;;;;;;10.20;2.78;;;;;;;;;;4956137;28;20221;-61
2023/07/04 10:52:38;;;;;;;10.10;2.60;;;;;;;;;;4974138;28;20268;-61
2023/07/04 10:55:04;;;;;;;14.40;2.70;;;;;;;;;;4973056;28;20226;-60
2023/07/04 10:57:32;;;;;;;11.02;3.20;;;;;;;;;;4940034;28;20294;-60
2023/07/04 10:59:59;;;;;;;10.82;2.75;;;;;;;;;;4956842;28;20459;-60
2023/07/04 11:02:24;;;;;;;9.63;2.50;;;;;;;;;;4972948;28;20213;-60
2023/07/04 11:04:50;;;;;;;10.02;2.30;;;;;;;;;;4973699;28;20308;-61
2023/07/04 11:07:19;;;;;;;10.90;2.75;;;;;;;;;;4972927;28;20268;-60
2023/07/04 11:09:45;;;;;;;11.85;2.30;;;;;;;;;;4973885;28;20241;-60
2023/07/04 11:12:12;;;;;;;9.25;2.38;;;;;;;;;;4971717;28;20578;-61
2023/07/04 11:14:39;;;;;;;9.65;2.40;;;;;;;;;;4973200;28;20225;-60
2023/07/04 11:17:06;;;;;;;12.32;2.40;;;;;;;;;;4956004;28;20586;-60
2023/07/04 11:19:38;;;;;;;7.05;1.88;;;;;;;;;;4956281;28;20433;-60
2023/07/04 11:22:03;;;;;;;8.27;2.70;;;;;;;;;;4972577;28;20222;-61
2023/07/04 11:24:33;;;;;;;6.50;2.08;;;;;;;;;;4973659;28;20222;-61
2023/07/04 11:27:00;;;;;;;10.25;2.75;;;;;;;;;;4973428;28;20210;-60
2023/07/04 11:29:25;;;;;;;9.38;2.15;;;;;;;;;;4972033;28;20696;-61
2023/07/04 11:32:10;;;;;;;10.13;2.08;;;;;;;;;;4973470;28;20210;-61
2023/07/04 11:34:46;;;;;;;8.13;2.55;;;;;;;;;;4972676;28;20252;-60
2023/07/04 11:37:15;;;;;;;10.20;2.50;;;;;;;;;;4972390;28;20220;-60
2023/07/04 11:39:40;;;;;;;9.20;2.38;;;;;;;;;;4955647;28;20229;-61
2023/07/04 11:42:15;;;;;;;9.18;2.00;;;;;;;;;;4972879;28;20253;-61
2023/07/04 11:44:44;;;;;;;8.40;2.28;;;;;;;;;;4972064;28;20237;-60
2023/07/04 11:47:10;;;;;;;10.73;2.10;;;;;;;;;;4962279;28;20724;-60
2023/07/04 11:49:36;;;;;;;8.15;2.40;;;;;;;;;;4985782;28;20630;-59
2023/07/04 11:52:03;;;;;;;8.32;2.17;;;;;;;;;;4974731;28;20673;-60
2023/07/04 11:54:29;;;;;;;7.45;1.95;;;;;;;;;;4974655;28;20567;-60
2023/07/04 11:56:54;;;;;;;7.85;1.98;;;;;;;;;;4992071;28;20263;-60
2023/07/04 11:59:21;;;;;;;11.38;2.17;;;;;;;;;;4973355;28;20274;-60
2023/07/04 12:01:51;;;;;;;6.93;2.10;;;;;;;;;;4972242;28;20210;-60
2023/07/04 12:04:18;;;;;;;9.95;2.10;;;;;;;;;;4971714;28;20250;-60
2023/07/04 12:06:46;;;;;;;9.10;2.15;;;;;;;;;;4955281;28;20699;-60
2023/07/04 12:09:12;;;;;;;7.00;2.20;;;;;;;;;;4972013;28;20284;-60
2023/07/04 12:11:42;;;;;;;9.40;2.53;;;;;;;;;;4953977;28;20244;-60
2023/07/04 12:14:08;;;;;;;10.45;2.20;;;;;;;;;;4971699;28;20348;-60
2023/07/04 12:16:33;;;;;;;10.10;2.20;;;;;;;;;;4957704;28;20312;-60
2023/07/04 12:19:03;;;;;;;9.48;2.58;;;;;;;;;;4953500;28;20284;-60
2023/07/04 12:21:28;;;;;;;7.57;2.20;;;;;;;;;;4971857;28;20614;-60
2023/07/04 12:23:53;;;;;;;11.75;2.35;;;;;;;;;;4972616;28;20283;-60
2023/07/04 12:26:21;;;;;;;7.47;2.20;;;;;;;;;;4971533;28;20713;-60
2023/07/04 12:28:47;;;;;;;8.70;2.03;;;;;;;;;;4972129;28;20213;-60
2023/07/04 12:31:14;;;;;;;6.97;2.13;;;;;;;;;;4971509;28;20229;-60
2023/07/04 12:33:40;;;;;;;11.40;2.38;;;;;;;;;;4970562;28;20233;-60
2023/07/04 12:36:06;;;;;;;11.93;2.30;;;;;;;;;;4971535;28;20217;-60
2023/07/04 12:38:32;;;;;;;8.45;2.15;;;;;;;;;;4972391;28;20291;-59
2023/07/04 12:40:57;;;;;;;8.00;2.10;;;;;;;;;;4971941;28;20276;-60
2023/07/04 12:43:23;;;;;;;10.52;2.30;;;;;;;;;;4971611;28;20216;-61
2023/07/04 12:45:48;;;;;;;7.90;2.35;;;;;;;;;;4971062;28;20691;-60
2023/07/04 12:48:13;;;;;;;9.13;2.40;;;;;;;;;;4969536;28;20220;-60
2023/07/04 12:50:40;;;;;;;7.10;2.00;;;;;;;;;;4971637;28;20563;-60
2023/07/04 12:53:05;;;;;;;7.30;1.90;;;;;;;;;;4953575;28;20243;-60
2023/07/04 12:55:31;;;;;;;9.60;2.00;;;;;;;;;;4952509;28;20605;-60
2023/07/04 12:57:57;;;;;;;9.30;2.30;;;;;;;;;;4971669;28;20299;-60
2023/07/04 13:00:26;;;;;;;9.32;2.42;;;;;;;;;;4933859;29;20298;-60
2023/07/04 13:02:51;;;;;;;8.63;2.17;;;;;;;;;;4952538;29;20241;-60
2023/07/04 13:05:17;;;;;;;10.10;2.00;;;;;;;;;;4951461;29;20645;-60
2023/07/04 13:07:43;;;;;;;10.02;2.20;;;;;;;;;;4951772;29;20219;-60
2023/07/04 13:10:08;;;;;;;5.47;2.13;;;;;;;;;;4967365;28;20229;-60
2023/07/04 13:12:34;;;;;;;9.55;2.15;;;;;;;;;;4970382;28;20230;-60
2023/07/04 13:15:04;;;;;;;10.30;2.33;;;;;;;;;;4970558;28;20232;-60
2023/07/04 13:17:29;;;;;;;6.50;2.00;;;;;;;;;;4970793;28;20210;-60
2023/07/04 13:19:55;;;;;;;6.80;1.85;;;;;;;;;;4971576;28;20221;-60
2023/07/04 13:22:20;;;;;;;6.70;2.40;;;;;;;;;;4970537;28;20229;-61
2023/07/04 13:24:47;;;;;;;9.98;2.22;;;;;;;;;;4968234;28;20272;-60
2023/07/04 13:27:19;;;;;;;9.68;2.20;;;;;;;;;;4971124;28;20657;-63
2023/07/04 13:29:48;;;;;;;7.00;2.53;;;;;;;;;;4970338;28;20313;-63
2023/07/04 13:32:20;;;;;;;7.53;2.30;;;;;;;;;;4964857;28;20228;-62
2023/07/04 13:34:46;;;;;;;7.45;2.20;;;;;;;;;;4947912;28;20265;-61
2023/07/04 13:37:11;;;;;;;6.85;2.15;;;;;;;;;;4943334;28;20232;-62
2023/07/04 13:39:36;;;;;;;9.13;2.53;;;;;;;;;;4959387;28;20269;-62
2023/07/04 13:42:02;;;;;;;8.52;2.08;;;;;;;;;;4954068;28;20612;-64
2023/07/04 13:44:27;;;;;;;8.60;2.60;;;;;;;;;;4946170;28;20608;-61
2023/07/04 13:46:53;;;;;;;8.65;2.10;;;;;;;;;;4945761;28;20630;-61
2023/07/04 13:49:18;;;;;;;7.13;1.85;;;;;;;;;;4945054;28;20297;-61
2023/07/04 13:51:44;;;;;;;10.50;2.22;;;;;;;;;;4964911;28;20337;-62
2023/07/04 13:54:10;;;;;;;6.15;1.90;;;;;;;;;;4927888;28;20421;-61
2023/07/04 13:56:36;;;;;;;7.72;2.00;;;;;;;;;;4939725;28;20323;-62
2023/07/04 13:59:01;;;;;;;6.57;2.20;;;;;;;;;;4938474;28;20238;-61
2023/07/04 14:01:26;;;;;;;7.07;2.22;;;;;;;;;;4939112;28;20700;-61
2023/07/04 14:03:52;;;;;;;6.35;2.13;;;;;;;;;;4943740;28;20253;-61
2023/07/04 14:06:17;;;;;;;7.75;2.10;;;;;;;;;;4946630;28;20297;-61
2023/07/04 14:08:43;;;;;;;9.15;2.03;;;;;;;;;;4964032;28;20342;-61
2023/07/04 14:11:10;;;;;;;9.75;2.38;;;;;;;;;;4949360;28;20237;-61
2023/07/04 14:13:35;;;;;;;10.23;2.80;;;;;;;;;;4968474;28;20237;-60
2023/07/04 14:16:01;;;;;;;9.38;2.20;;;;;;;;;;4948735;28;20297;-61
2023/07/04 14:18:26;;;;;;;10.18;2.30;;;;;;;;;;4946184;28;20268;-61
2023/07/04 14:20:52;;;;;;;6.80;2.38;;;;;;;;;;4942675;28;20309;-61
2023/07/04 14:23:17;;;;;;;7.85;2.30;;;;;;;;;;4942249;28;20631;-62
2023/07/04 14:25:43;;;;;;;5.57;2.00;;;;;;;;;;4945351;28;20220;-62
2023/07/04 14:28:08;;;;;;;6.25;2.08;;;;;;;;;;4949175;28;20218;-62